createdAt,value
2023-06-29T00:02:01.717Z,99.90
2023-06-29T00:07:05.989Z,99.90
2023-06-29T00:12:11.417Z,99.90
2023-06-29T00:17:18.246Z,99.90
2023-06-29T00:22:27.361Z,99.90
2023-06-29T00:28:00.882Z,99.90
2023-06-29T00:33:10.108Z,99.90
2023-06-29T00:38:13.844Z,99.90
2023-06-29T00:43:21.461Z,99.90
2023-06-29T00:48:29.307Z,99.90
2023-06-29T00:53:34.364Z,99.90
2023-06-29T00:58:58.796Z,99.90
2023-06-29T01:04:08.071Z,99.90
2023-06-29T01:09:17.198Z,99.90
2023-06-29T01:14:22.691Z,99.90
2023-06-29T01:19:30.045Z,99.90
2023-06-29T01:24:41.864Z,99.90
2023-06-29T01:29:46.329Z,99.90
2023-06-29T01:34:49.669Z,99.90
2023-06-29T01:39:55.503Z,99.90
2023-06-29T01:44:59.163Z,99.90
2023-06-29T01:50:04.544Z,99.90
2023-06-29T01:55:11.200Z,99.90
2023-06-29T02:00:16.592Z,99.90
2023-06-29T02:05:22.049Z,99.90
2023-06-29T02:10:27.305Z,99.90
2023-06-29T02:15:31.180Z,99.90
2023-06-29T02:20:42.202Z,99.90
2023-06-29T02:25:47.613Z,99.90
2023-06-29T02:30:54.333Z,99.90
2023-06-29T02:35:58.490Z,99.90
2023-06-29T02:41:06.355Z,99.90
2023-06-29T02:46:10.311Z,99.90
2023-06-29T02:51:15.833Z,99.90
2023-06-29T02:56:35.699Z,99.90
2023-06-29T03:01:41.942Z,99.90
2023-06-29T03:06:45.254Z,99.90
2023-06-29T03:11:51.030Z,99.90
2023-06-29T03:16:56.248Z,99.90
2023-06-29T03:22:01.037Z,99.90
2023-06-29T03:27:07.962Z,99.90
2023-06-29T03:32:11.771Z,99.90
2023-06-29T03:37:27.804Z,99.90
2023-06-29T03:42:44.095Z,99.90
2023-06-29T03:47:48.144Z,99.90
2023-06-29T03:52:53.710Z,99.90
2023-06-29T03:57:59.471Z,99.90
2023-06-29T04:03:24.362Z,99.90
2023-06-29T04:08:58.282Z,99.90
2023-06-29T04:14:11.938Z,99.90
2023-06-29T04:19:17.263Z,99.90
2023-06-29T04:24:22.349Z,99.90
2023-06-29T04:29:27.245Z,99.90
2023-06-29T04:34:30.382Z,99.90
2023-06-29T04:39:33.828Z,99.90
2023-06-29T04:44:38.755Z,99.90
2023-06-29T04:49:46.014Z,99.90
2023-06-29T04:55:12.463Z,99.90
2023-06-29T05:00:28.945Z,99.90
2023-06-29T05:10:49.594Z,99.90
2023-06-29T05:16:00.436Z,99.90
2023-06-29T05:21:06.553Z,99.90
2023-06-29T05:26:11.292Z,99.90
2023-06-29T05:31:54.463Z,99.90
2023-06-29T05:37:14.842Z,99.90
2023-06-29T05:42:24.499Z,99.90
2023-06-29T05:48:05.272Z,99.90
2023-06-29T05:53:14.389Z,99.90
2023-06-29T05:58:31.820Z,99.90
2023-06-29T06:04:04.492Z,99.90
2023-06-29T06:14:28.852Z,99.90
2023-06-29T06:19:47.014Z,99.90
2023-06-29T06:29:58.766Z,99.90
2023-06-29T06:35:07.794Z,99.90
2023-06-29T06:40:44.285Z,99.90
2023-06-29T06:46:00.907Z,99.90
2023-06-29T06:51:07.964Z,99.90
2023-06-29T06:56:21.850Z,99.90
2023-06-29T07:01:28.398Z,99.90
2023-06-29T07:06:35.256Z,99.90
2023-06-29T07:11:45.518Z,99.90
2023-06-29T07:16:59.008Z,99.90
2023-06-29T07:27:29.731Z,99.90
2023-06-29T07:32:37.532Z,99.90
2023-06-29T07:37:43.278Z,99.90
2023-06-29T07:42:53.609Z,99.90
2023-06-29T07:48:00.096Z,99.90
2023-06-29T07:53:06.278Z,99.90
2023-06-29T08:03:24.337Z,99.90
2023-06-29T08:08:32.065Z,99.90
2023-06-29T08:13:35.563Z,99.90
2023-06-29T08:18:42.021Z,99.90
2023-06-29T08:23:52.385Z,99.20
2023-06-29T08:28:56.293Z,97.80
2023-06-29T08:34:03.449Z,98.50
2023-06-29T08:39:12.165Z,99.20
2023-06-29T08:44:18.911Z,96.50
2023-06-29T08:49:24.563Z,95.90
2023-06-29T08:54:36.452Z,98.00
2023-06-29T08:59:55.709Z,94.20
2023-06-29T09:05:15.060Z,94.10
2023-06-29T09:10:26.553Z,92.60
2023-06-29T09:15:31.621Z,97.00
2023-06-29T09:20:46.590Z,93.20
2023-06-29T09:25:59.111Z,93.80
2023-06-29T09:31:08.238Z,92.10
2023-06-29T09:36:13.460Z,93.00
2023-06-29T09:41:20.241Z,92.70
2023-06-29T09:52:13.672Z,92.30
2023-06-29T09:57:19.645Z,94.30
2023-06-29T10:02:23.672Z,94.20
2023-06-29T10:07:29.574Z,96.10
2023-06-29T10:12:35.049Z,91.80
2023-06-29T10:17:46.787Z,92.50
2023-06-29T10:22:50.304Z,90.90
2023-06-29T10:27:56.184Z,90.00
2023-06-29T10:33:00.702Z,85.80
2023-06-29T10:38:08.648Z,87.70
2023-06-29T10:43:13.374Z,90.00
2023-06-29T10:48:43.017Z,90.30
2023-06-29T10:53:46.424Z,88.80
2023-06-29T10:58:51.428Z,86.10
2023-06-29T11:03:55.257Z,86.50
2023-06-29T11:08:58.911Z,89.80
2023-06-29T11:14:06.191Z,90.80
2023-06-29T11:19:12.948Z,87.60
2023-06-29T11:24:17.260Z,88.50
2023-06-29T11:29:25.549Z,83.10
2023-06-29T11:34:31.220Z,80.00
2023-06-29T11:39:34.436Z,82.90
2023-06-29T11:44:38.936Z,82.40
2023-06-29T11:49:42.698Z,83.80
2023-06-29T11:54:46.080Z,86.40
2023-06-29T11:59:50.974Z,85.70
2023-06-29T12:05:03.259Z,85.70
2023-06-29T12:10:09.069Z,86.90
2023-06-29T12:15:17.835Z,90.50
2023-06-29T12:20:22.591Z,86.40
2023-06-29T12:25:26.071Z,85.40
2023-06-29T12:30:31.095Z,88.20
2023-06-29T12:35:34.805Z,85.00
2023-06-29T12:40:39.128Z,84.90
2023-06-29T12:45:45.166Z,82.60
2023-06-29T12:50:49.266Z,77.90
2023-06-29T12:55:53.278Z,77.80
2023-06-29T13:00:58.625Z,77.10
2023-06-29T13:06:02.775Z,74.40
2023-06-29T13:11:08.421Z,74.70
2023-06-29T13:16:13.704Z,70.10
2023-06-29T13:21:17.381Z,68.40
2023-06-29T13:26:20.661Z,67.30
2023-06-29T13:31:28.110Z,65.90
2023-06-29T13:36:33.269Z,70.30
2023-06-29T13:41:38.254Z,68.30
2023-06-29T13:46:47.001Z,68.30
2023-06-29T13:51:51.310Z,68.90
2023-06-29T13:56:55.327Z,67.30
2023-06-29T14:02:00.457Z,70.30
2023-06-29T14:07:03.956Z,69.50
2023-06-29T14:12:08.688Z,71.00
2023-06-29T14:17:16.148Z,71.90
2023-06-29T14:22:19.256Z,75.50
2023-06-29T14:27:22.515Z,75.60
2023-06-29T14:32:28.612Z,69.20
2023-06-29T14:37:32.565Z,70.10
2023-06-29T14:42:35.644Z,67.30
2023-06-29T14:47:40.968Z,64.90
2023-06-29T14:52:48.127Z,69.50
2023-06-29T14:57:51.835Z,67.90
2023-06-29T15:02:57.068Z,65.10
2023-06-29T15:08:01.085Z,65.10
2023-06-29T15:13:05.532Z,65.90
2023-06-29T15:18:10.349Z,62.90
2023-06-29T15:23:13.864Z,66.10
2023-06-29T15:28:17.639Z,68.00
2023-06-29T15:33:25.075Z,67.70
2023-06-29T15:38:30.049Z,67.50
2023-06-29T15:43:34.414Z,68.50
2023-06-29T15:48:47.311Z,71.10
2023-06-29T15:53:52.860Z,66.20
2023-06-29T15:58:57.010Z,71.00
2023-06-29T16:04:01.465Z,70.30
2023-06-29T16:09:05.051Z,73.60
2023-06-29T16:14:08.597Z,72.80
2023-06-29T16:19:15.930Z,76.40
2023-06-29T16:24:20.039Z,73.80
2023-06-29T16:29:25.052Z,73.30
2023-06-29T16:34:29.709Z,73.50
2023-06-29T16:39:32.912Z,74.00
2023-06-29T16:44:36.291Z,72.70
2023-06-29T16:49:42.429Z,74.80
2023-06-29T16:54:46.289Z,74.20
2023-06-29T16:59:49.845Z,75.40
2023-06-29T17:04:55.034Z,74.90
2023-06-29T17:09:58.551Z,78.50
2023-06-29T17:15:01.736Z,79.80
2023-06-29T17:20:08.288Z,78.50
2023-06-29T17:25:11.660Z,77.20
2023-06-29T17:30:15.913Z,76.90
2023-06-29T17:35:20.608Z,79.20
2023-06-29T17:40:23.671Z,79.00
2023-06-29T17:45:28.089Z,78.70
2023-06-29T17:50:32.531Z,77.40
2023-06-29T17:55:36.365Z,81.10
2023-06-29T18:00:39.588Z,81.20
2023-06-29T18:05:45.028Z,80.50
2023-06-29T18:10:48.381Z,80.50
2023-06-29T18:15:51.686Z,81.60
2023-06-29T18:20:56.308Z,82.70
2023-06-29T18:26:00.307Z,82.70
2023-06-29T18:31:03.622Z,82.70
2023-06-29T18:36:08.901Z,83.30
2023-06-29T18:41:30.938Z,84.50
2023-06-29T18:46:41.829Z,86.30
2023-06-29T18:51:46.870Z,86.70
2023-06-29T18:56:50.043Z,88.00
2023-06-29T19:01:53.344Z,89.00
2023-06-29T19:06:58.464Z,89.30
2023-06-29T19:12:02.320Z,90.10
2023-06-29T19:17:06.059Z,90.20
2023-06-29T19:22:11.240Z,90.70
2023-06-29T19:27:14.538Z,90.60
2023-06-29T19:32:17.592Z,91.00
2023-06-29T19:37:26.582Z,91.90
2023-06-29T19:42:30.339Z,92.40
2023-06-29T19:47:34.100Z,93.00
2023-06-29T19:52:38.926Z,93.00
2023-06-29T19:57:42.435Z,92.90
2023-06-29T20:02:46.502Z,93.40
2023-06-29T20:07:51.947Z,95.90
2023-06-29T20:12:55.608Z,97.30
2023-06-29T20:17:59.340Z,99.90
2023-06-29T20:23:04.214Z,99.90
2023-06-29T20:28:07.331Z,99.90
2023-06-29T20:33:10.862Z,99.90
2023-06-29T20:38:15.426Z,99.90
2023-06-29T20:43:18.763Z,99.90
2023-06-29T20:48:21.916Z,99.90
2023-06-29T20:53:26.456Z,99.90
2023-06-29T20:58:29.806Z,99.90
2023-06-29T21:03:34.528Z,99.90
2023-06-29T21:08:39.366Z,99.90
2023-06-29T21:13:43.709Z,99.90
2023-06-29T21:18:48.020Z,99.90
2023-06-29T21:24:24.556Z,99.90
2023-06-29T21:29:42.271Z,99.90
2023-06-29T21:34:48.280Z,99.90
2023-06-29T21:39:53.884Z,99.90
2023-06-29T21:44:57.593Z,99.90
2023-06-29T21:50:01.842Z,99.90
2023-06-29T21:55:09.824Z,99.90
2023-06-29T22:00:14.429Z,99.90
2023-06-29T22:05:18.460Z,99.90
2023-06-29T22:10:28.266Z,99.90
2023-06-29T22:15:38.434Z,99.90
2023-06-29T22:20:43.256Z,99.90
2023-06-29T22:25:48.202Z,99.90
2023-06-29T22:30:55.055Z,99.90
2023-06-29T22:36:00.627Z,99.90
2023-06-29T22:41:08.501Z,99.90
2023-06-29T22:46:12.294Z,99.90
2023-06-29T22:51:17.145Z,99.90
2023-06-29T22:56:24.969Z,99.90
2023-06-29T23:01:28.468Z,99.90
2023-06-29T23:06:32.762Z,99.90
2023-06-29T23:11:37.924Z,99.90
2023-06-29T23:16:41.593Z,99.90
2023-06-29T23:21:45.468Z,99.90
2023-06-29T23:26:50.736Z,99.90
2023-06-29T23:31:54.767Z,99.90
2023-06-29T23:36:58.858Z,99.90
2023-06-29T23:42:05.168Z,99.90
2023-06-29T23:47:10.570Z,99.90
2023-06-29T23:52:15.370Z,99.90
2023-06-29T23:57:20.527Z,99.90
